createdAt,value
2022-12-01T06:48:18.020Z,29.23
2022-12-01T06:50:46.145Z,26.50
2022-12-01T06:53:14.228Z,29.25
2022-12-01T06:55:42.298Z,33.20
2022-12-01T06:58:10.619Z,29.38
2022-12-01T07:00:39.175Z,25.83
2022-12-01T07:03:07.213Z,27.05
2022-12-01T07:05:36.656Z,29.48
2022-12-01T07:08:06.781Z,26.30
2022-12-01T07:10:34.918Z,30.90
2022-12-01T07:13:02.995Z,32.08
2022-12-01T07:15:31.067Z,28.50
2022-12-01T07:17:59.091Z,31.40
2022-12-01T07:20:27.280Z,28.58
2022-12-01T07:22:56.949Z,29.50
2022-12-01T07:25:24.971Z,26.42
2022-12-01T07:27:53.027Z,30.70
2022-12-01T07:30:24.219Z,27.17
2022-12-01T07:32:56.282Z,28.00
2022-12-01T07:35:24.514Z,27.60
2022-12-01T07:37:57.213Z,28.45
2022-12-01T07:40:25.326Z,26.08
2022-12-01T07:42:53.383Z,31.40
2022-12-01T07:45:21.516Z,27.77
2022-12-01T07:47:53.186Z,26.73
2022-12-01T07:50:21.678Z,27.75
2022-12-01T07:52:51.056Z,29.20
2022-12-01T07:55:20.487Z,29.15
2022-12-01T07:57:48.562Z,26.58
2022-12-01T08:00:17.303Z,30.85
2022-12-01T08:02:45.456Z,27.65
2022-12-01T08:05:14.808Z,27.55
2022-12-01T08:07:42.933Z,30.35
2022-12-01T08:10:11.895Z,28.63
2022-12-01T08:12:53.623Z,31.17
2022-12-01T08:15:21.826Z,29.27
2022-12-01T08:17:49.956Z,30.00
2022-12-01T08:20:23.565Z,34.45
2022-12-01T08:22:52.113Z,34.55
2022-12-01T08:25:22.893Z,31.70
2022-12-01T08:27:50.940Z,30.42
2022-12-01T08:30:20.496Z,37.53
2022-12-01T08:32:48.640Z,36.03
2022-12-01T08:35:16.782Z,36.75
2022-12-01T08:37:44.890Z,41.63
2022-12-01T08:40:13.732Z,36.60
2022-12-01T08:42:41.823Z,34.17
2022-12-01T08:45:10.965Z,36.38
2022-12-01T08:47:40.455Z,34.30
2022-12-01T08:50:11.007Z,38.88
2022-12-01T08:52:39.061Z,41.80
2022-12-01T08:55:08.675Z,35.25
2022-12-01T08:57:45.875Z,36.22
2022-12-01T09:00:15.204Z,37.35
2022-12-01T09:02:45.011Z,39.22
2022-12-01T09:05:13.396Z,31.50
2022-12-01T09:07:42.875Z,33.00
2022-12-01T09:10:11.489Z,38.80
2022-12-01T09:12:39.575Z,36.28
2022-12-01T09:15:08.505Z,31.30
2022-12-01T09:17:36.536Z,34.53
2022-12-01T09:20:07.350Z,36.78
2022-12-01T09:22:35.459Z,31.63
2022-12-01T09:25:03.552Z,36.50
2022-12-01T09:27:31.602Z,36.83
2022-12-01T09:29:59.774Z,31.67
2022-12-01T09:32:27.870Z,31.52
2022-12-01T09:34:55.994Z,28.40
2022-12-01T09:37:25.454Z,34.63
2022-12-01T09:39:53.534Z,33.97
2022-12-01T09:42:32.222Z,29.83
2022-12-01T09:45:04.968Z,31.20
2022-12-01T09:47:36.088Z,30.70
2022-12-01T09:50:08.059Z,30.38
2022-12-01T09:52:44.060Z,28.20
2022-12-01T09:55:14.302Z,26.52
2022-12-01T09:57:43.352Z,25.73
2022-12-01T10:00:16.401Z,27.23
2022-12-01T10:02:49.902Z,29.17
2022-12-01T10:05:21.091Z,29.17
2022-12-01T10:07:56.930Z,25.67
2022-12-01T10:10:28.999Z,27.63
2022-12-01T10:12:57.515Z,26.50
2022-12-01T10:15:38.079Z,30.90
2022-12-01T10:18:22.829Z,31.92
2022-12-01T10:21:03.775Z,27.63
2022-12-01T10:23:45.223Z,28.85
2022-12-01T10:26:17.138Z,25.92
2022-12-01T10:28:55.099Z,30.38
2022-12-01T10:31:36.871Z,29.67
2022-12-01T10:34:09.058Z,30.20
2022-12-01T10:36:37.395Z,28.55
2022-12-01T10:39:08.316Z,28.13
2022-12-01T10:41:40.140Z,29.88
2022-12-01T10:44:09.676Z,31.15
2022-12-01T10:46:44.633Z,30.60
2022-12-01T10:49:14.941Z,26.83
2022-12-01T10:51:54.926Z,29.45
2022-12-01T10:54:32.950Z,26.15
2022-12-01T10:57:02.108Z,28.23
2022-12-01T10:59:35.527Z,30.38
2022-12-01T11:02:07.397Z,30.73
2022-12-01T11:04:45.211Z,25.98
2022-12-01T11:07:19.366Z,23.52
2022-12-01T11:10:04.388Z,29.58
2022-12-01T11:12:34.008Z,23.55
2022-12-01T11:15:03.157Z,27.13
2022-12-01T11:17:34.180Z,26.20
2022-12-01T11:20:26.113Z,28.10
2022-12-01T11:22:54.538Z,26.63
2022-12-01T11:25:23.941Z,25.05
2022-12-01T11:27:57.505Z,27.30
2022-12-01T11:30:27.620Z,29.33
2022-12-01T11:32:59.177Z,25.17
2022-12-01T11:35:30.931Z,26.17
2022-12-01T11:40:53.940Z,25.65
2022-12-01T11:43:26.035Z,25.92
2022-12-01T11:45:55.501Z,26.08
2022-12-01T11:48:28.411Z,25.13
2022-12-01T11:51:05.853Z,27.17
2022-12-01T11:53:35.696Z,26.80
2022-12-01T11:56:20.877Z,24.08
2022-12-01T11:58:50.687Z,23.42
2022-12-01T12:01:31.019Z,26.42
2022-12-01T12:04:03.964Z,24.08
2022-12-01T12:06:40.831Z,23.25
2022-12-01T12:09:34.236Z,26.52
2022-12-01T12:12:13.512Z,27.42
2022-12-01T12:14:51.464Z,24.65
2022-12-01T12:17:27.905Z,27.27
2022-12-01T12:20:17.497Z,26.02
2022-12-01T12:22:56.832Z,25.25
2022-12-01T12:25:32.823Z,25.70
2022-12-01T12:28:20.771Z,27.13
2022-12-01T12:30:58.854Z,24.75
2022-12-01T12:34:08.940Z,24.45
2022-12-01T12:36:47.047Z,26.40
2022-12-01T12:39:32.749Z,25.88
2022-12-01T12:42:05.781Z,27.15
2022-12-01T12:44:47.980Z,27.98
2022-12-01T12:47:32.009Z,26.73
2022-12-01T12:50:10.757Z,25.35
2022-12-01T12:52:41.827Z,24.27
2022-12-01T12:55:16.120Z,24.55
2022-12-01T12:57:49.863Z,24.25
2022-12-01T13:00:22.832Z,26.42
2022-12-01T13:02:55.640Z,25.27
2022-12-01T13:05:28.797Z,23.23
2022-12-01T13:08:02.295Z,22.58
2022-12-01T13:10:37.385Z,22.23
2022-12-01T13:13:24.424Z,23.50
2022-12-01T13:15:56.927Z,22.88
2022-12-01T13:18:30.709Z,24.05
2022-12-01T13:20:59.436Z,24.20
2022-12-01T13:23:27.975Z,23.88
2022-12-01T13:25:58.370Z,25.52
2022-12-01T13:28:29.459Z,24.63
2022-12-01T13:31:04.707Z,25.77
2022-12-01T13:33:34.053Z,22.92
2022-12-01T13:36:44.571Z,23.85
2022-12-01T13:39:00.480Z,24.15
2022-12-01T13:41:33.286Z,22.20
2022-12-01T13:44:04.782Z,23.95
2022-12-01T13:46:52.056Z,26.52
2022-12-01T13:49:48.438Z,25.30
2022-12-01T13:52:40.751Z,24.60
2022-12-01T13:55:29.939Z,24.25
2022-12-01T13:58:24.464Z,26.42
2022-12-01T14:00:52.813Z,24.90
2022-12-01T14:03:41.856Z,23.73
2022-12-01T14:06:26.542Z,24.05
2022-12-01T14:08:58.663Z,26.05
2022-12-01T14:11:28.697Z,24.48
2022-12-01T14:14:02.779Z,21.90
2022-12-01T14:16:47.017Z,23.70
2022-12-01T14:19:29.668Z,21.45
2022-12-01T14:21:58.537Z,22.40
2022-12-01T14:24:31.327Z,18.92
2022-12-01T14:26:59.573Z,20.08
2022-12-01T14:29:33.276Z,20.10
2022-12-01T14:32:23.497Z,20.50
2022-12-01T14:35:00.579Z,13.25
2022-12-01T14:37:38.343Z,14.23
2022-12-01T14:40:12.590Z,15.90
2022-12-01T14:43:01.661Z,14.57
2022-12-01T14:45:35.763Z,13.93
2022-12-01T14:48:06.232Z,13.13
2022-12-01T14:50:46.632Z,14.50
2022-12-01T14:53:23.635Z,15.43
2022-12-01T14:55:56.559Z,16.30
2022-12-01T14:58:27.930Z,15.35
2022-12-01T15:01:05.784Z,19.65
2022-12-01T15:03:38.306Z,18.27
2022-12-01T15:06:08.532Z,14.13
2022-12-01T15:08:49.294Z,15.57
2022-12-01T15:11:28.501Z,14.80
2022-12-01T15:13:58.143Z,15.98
2022-12-01T15:16:30.235Z,14.60
2022-12-01T15:18:58.385Z,15.95
2022-12-01T15:21:30.023Z,13.48
2022-12-01T15:24:00.293Z,14.75
2022-12-01T15:26:31.036Z,16.73
2022-12-01T15:29:06.658Z,14.20
2022-12-01T15:31:36.522Z,17.02
2022-12-01T15:34:04.947Z,14.40
2022-12-01T15:36:34.605Z,17.50
2022-12-01T15:39:07.082Z,14.07
2022-12-01T15:41:39.971Z,16.08
2022-12-01T15:44:20.667Z,17.85
2022-12-01T15:46:49.006Z,18.83
2022-12-01T15:49:27.337Z,16.20
2022-12-01T15:52:05.747Z,15.43
2022-12-01T15:54:34.327Z,17.25
2022-12-01T15:57:03.518Z,17.60
2022-12-01T15:59:37.086Z,17.08
2022-12-01T16:02:26.123Z,16.25
2022-12-01T16:05:05.611Z,19.52
2022-12-01T16:08:12.271Z,19.85
2022-12-01T16:10:31.487Z,22.23
2022-12-01T16:13:37.054Z,18.95
2022-12-01T16:16:27.692Z,22.02
2022-12-01T16:18:57.900Z,19.65
2022-12-01T16:21:26.797Z,21.83
2022-12-01T16:24:04.766Z,21.02
2022-12-01T16:26:34.587Z,22.35
2022-12-01T16:29:02.679Z,21.25
2022-12-01T16:31:30.852Z,22.25
2022-12-01T16:34:18.541Z,19.30
2022-12-01T16:36:52.060Z,23.13
2022-12-01T16:39:21.482Z,21.85
2022-12-01T16:41:49.625Z,26.73
2022-12-01T16:44:28.543Z,27.45
2022-12-01T16:46:57.234Z,25.58
2022-12-01T16:49:25.604Z,24.15
2022-12-01T16:51:56.461Z,24.13
2022-12-01T16:54:26.727Z,24.88
2022-12-01T16:56:54.871Z,23.98
2022-12-01T16:59:22.950Z,23.55
2022-12-01T17:01:51.077Z,27.27
2022-12-01T17:04:19.263Z,27.80
2022-12-01T17:06:47.422Z,27.00
2022-12-01T17:09:15.483Z,28.80
2022-12-01T17:11:45.173Z,27.25
2022-12-01T17:14:13.498Z,29.15
2022-12-01T17:16:41.576Z,28.80
2022-12-01T17:19:09.620Z,27.80
2022-12-01T17:21:37.804Z,32.17
2022-12-01T17:24:06.302Z,31.50
2022-12-01T17:26:34.557Z,31.80
2022-12-01T17:29:04.587Z,34.72
2022-12-01T17:31:32.733Z,31.63
2022-12-01T17:34:00.881Z,32.78
2022-12-01T17:36:28.986Z,29.17
2022-12-01T17:38:58.620Z,33.38
2022-12-01T17:41:32.174Z,33.78
2022-12-01T17:44:04.376Z,36.10
2022-12-01T17:46:32.963Z,34.72
2022-12-01T17:49:01.123Z,37.42
2022-12-01T17:51:29.239Z,30.55
2022-12-01T17:53:57.272Z,30.17
2022-12-01T17:56:25.362Z,34.67
2022-12-01T17:58:53.399Z,32.25
2022-12-01T18:01:29.782Z,33.90
2022-12-01T18:03:59.025Z,32.20
2022-12-01T18:06:27.881Z,33.70
2022-12-01T18:08:57.412Z,30.80
2022-12-01T18:11:25.519Z,33.88
2022-12-01T18:13:53.791Z,31.05
2022-12-01T18:16:25.193Z,33.03
2022-12-01T18:18:54.186Z,31.90
2022-12-01T18:21:23.995Z,33.58
2022-12-01T18:23:52.732Z,29.58
2022-12-01T18:26:22.421Z,29.98
2022-12-01T18:28:55.671Z,29.52
2022-12-01T18:31:26.330Z,31.15
2022-12-01T18:33:54.644Z,30.85
2022-12-01T18:36:24.895Z,29.45
2022-12-01T18:38:54.548Z,26.38
2022-12-01T18:41:22.700Z,26.33
2022-12-01T18:43:51.081Z,26.83
2022-12-01T18:46:20.724Z,27.35
2022-12-01T18:48:55.596Z,29.40
2022-12-01T18:51:24.520Z,26.98
2022-12-01T18:53:54.770Z,28.30
2022-12-01T18:56:23.180Z,27.00
2022-12-01T18:58:55.903Z,24.98
2022-12-01T19:01:26.447Z,23.60
2022-12-01T19:03:57.963Z,23.98
2022-12-01T19:06:27.248Z,28.58
2022-12-01T19:08:55.649Z,24.55
2022-12-01T19:11:23.923Z,27.27
2022-12-01T19:13:51.938Z,25.83
2022-12-01T19:16:20.934Z,25.60
2022-12-01T19:18:49.057Z,25.80
2022-12-01T19:21:20.423Z,26.55
2022-12-01T19:23:48.769Z,27.40
2022-12-01T19:26:20.560Z,25.63
2022-12-01T19:28:49.170Z,26.73
2022-12-01T19:31:19.839Z,25.60
2022-12-01T19:33:48.309Z,27.40
2022-12-01T19:36:19.783Z,26.35
2022-12-01T19:38:48.359Z,27.95
2022-12-01T19:41:20.356Z,27.58
2022-12-01T19:43:49.114Z,25.27
2022-12-01T19:46:19.080Z,26.35
2022-12-01T19:48:47.743Z,26.60
2022-12-01T19:51:21.686Z,29.20
2022-12-01T19:53:49.826Z,29.10
2022-12-01T19:56:18.099Z,31.63
2022-12-01T19:58:46.194Z,32.10
2022-12-01T20:01:16.583Z,32.28
2022-12-01T20:03:47.601Z,28.60
2022-12-01T20:06:17.704Z,32.92
2022-12-01T20:08:47.677Z,33.88
2022-12-01T20:11:16.292Z,33.25
2022-12-01T20:13:47.502Z,33.60
2022-12-01T20:16:17.550Z,29.48
2022-12-01T20:18:46.278Z,30.83
2022-12-01T20:21:17.677Z,31.73
2022-12-01T20:23:50.167Z,31.92
2022-12-01T20:26:20.359Z,31.08
2022-12-01T20:28:50.640Z,32.05
2022-12-01T20:31:22.025Z,32.70
2022-12-01T20:33:50.549Z,30.27
2022-12-01T20:36:19.753Z,31.23
2022-12-01T20:38:49.423Z,32.28
2022-12-01T20:41:18.950Z,32.13
2022-12-01T20:43:47.027Z,34.30
2022-12-01T20:46:16.203Z,36.33
2022-12-01T20:48:44.515Z,30.73
2022-12-01T20:51:14.298Z,32.92
2022-12-01T20:53:59.645Z,35.90
2022-12-01T20:56:32.240Z,32.42
2022-12-01T20:59:00.676Z,32.95
2022-12-01T21:01:28.795Z,34.55
2022-12-01T21:03:56.871Z,33.17
2022-12-01T21:06:25.423Z,33.70
2022-12-01T21:08:53.550Z,33.58
2022-12-01T21:11:44.536Z,33.83
2022-12-01T21:14:18.541Z,36.85
2022-12-01T21:16:49.365Z,37.38
2022-12-01T21:19:23.757Z,32.70
2022-12-01T21:21:51.873Z,31.48
2022-12-01T21:24:22.234Z,32.58
2022-12-01T21:26:53.295Z,33.67
2022-12-01T21:29:24.896Z,33.38
2022-12-01T21:31:54.812Z,33.97
2022-12-01T21:34:25.913Z,34.00
2022-12-01T21:36:57.645Z,36.95
2022-12-01T21:39:27.416Z,34.60
2022-12-01T21:41:57.793Z,34.17
2022-12-01T21:44:33.674Z,34.90
2022-12-01T21:47:14.069Z,35.78
2022-12-01T21:49:42.295Z,38.78
2022-12-01T21:52:15.943Z,35.58
2022-12-01T21:54:44.023Z,38.20
2022-12-01T21:57:42.977Z,39.28
2022-12-01T22:00:30.762Z,37.72
2022-12-01T22:03:22.832Z,40.60
2022-12-01T22:06:21.376Z,38.45
2022-12-01T22:08:44.164Z,36.90
2022-12-01T22:11:18.545Z,42.67
2022-12-01T22:13:50.992Z,37.90
2022-12-01T22:16:26.446Z,37.88
2022-12-01T22:18:56.621Z,38.38
2022-12-01T22:21:33.799Z,37.95
2022-12-01T22:24:37.866Z,38.10
2022-12-01T22:27:29.807Z,39.05
2022-12-01T22:30:00.417Z,38.97
2022-12-01T22:32:39.073Z,37.65
2022-12-01T22:35:22.578Z,42.22
2022-12-01T22:37:52.327Z,38.55
2022-12-01T22:40:39.028Z,37.30
2022-12-01T22:43:44.936Z,40.25
2022-12-01T22:46:32.200Z,42.70
2022-12-01T22:49:09.425Z,38.33
2022-12-01T22:51:42.581Z,38.50
2022-12-01T22:54:23.460Z,38.50
2022-12-01T22:56:58.795Z,38.13
2022-12-01T22:59:33.753Z,37.97
2022-12-01T23:02:03.622Z,37.85
2022-12-01T23:04:38.941Z,37.53
2022-12-01T23:07:10.441Z,39.72
2022-12-01T23:09:42.128Z,41.28
2022-12-01T23:12:25.593Z,39.40
2022-12-01T23:14:55.496Z,37.70
2022-12-01T23:17:25.961Z,40.65
2022-12-01T23:20:02.273Z,39.80
2022-12-01T23:22:30.316Z,40.20
2022-12-01T23:25:13.162Z,40.72
2022-12-01T23:27:41.677Z,39.20
2022-12-01T23:30:11.300Z,40.92
2022-12-01T23:32:39.763Z,41.65
2022-12-01T23:35:16.348Z,41.45
2022-12-01T23:37:47.432Z,41.53
2022-12-01T23:40:18.433Z,41.65
2022-12-01T23:42:46.842Z,40.00
2022-12-01T23:45:18.350Z,39.60
2022-12-01T23:47:46.626Z,39.42
2022-12-01T23:50:21.403Z,41.47
2022-12-01T23:52:49.467Z,37.53
2022-12-01T23:55:22.814Z,39.30
2022-12-01T23:57:52.436Z,40.15
